createdAt,value
2018-12-30T00:02:40.383Z,102288.42
2018-12-30T00:07:14.026Z,102293.64
2018-12-30T00:11:19.435Z,102295.52
2018-12-30T00:15:24.366Z,102309.15
2018-12-30T00:19:31.071Z,102314.14
2018-12-30T00:23:36.303Z,102319.55
2018-12-30T00:27:41.387Z,102330.66
2018-12-30T00:31:46.751Z,102334.53
2018-12-30T00:35:51.950Z,102341.52
2018-12-30T00:39:57.009Z,102341.07
2018-12-30T00:44:02.355Z,102351.09
2018-12-30T00:48:07.482Z,102355.52
2018-12-30T00:52:12.778Z,102360.75
2018-12-30T00:56:18.543Z,102369.49
2018-12-30T01:00:23.716Z,102370.33
2018-12-30T01:04:29.367Z,102375.09
2018-12-30T01:08:34.442Z,102386.66
2018-12-30T01:12:39.920Z,102384.12
2018-12-30T01:16:44.986Z,102373.72
2018-12-30T01:20:50.250Z,102402.72
2018-12-30T01:24:55.873Z,102398.78
2018-12-30T01:29:04.738Z,102413.45
2018-12-30T01:33:11.450Z,102414.42
2018-12-30T01:46:27.326Z,102403.14
2018-12-30T01:55:09.951Z,102417.21
2018-12-30T01:59:30.246Z,102436.95
2018-12-30T02:08:40.914Z,102444.00
2018-12-30T02:12:45.987Z,102454.42
2018-12-30T02:16:51.119Z,102437.40
2018-12-30T02:25:35.315Z,102451.41
2018-12-30T02:34:53.961Z,102459.38
2018-12-30T02:38:58.956Z,102482.07
2018-12-30T02:43:04.240Z,102480.31
2018-12-30T02:47:21.280Z,102474.22
2018-12-30T02:51:26.347Z,102474.22
2018-12-30T03:00:21.514Z,102479.62
2018-12-30T03:04:26.571Z,102459.92
2018-12-30T03:08:31.616Z,102469.74
2018-12-30T03:12:37.584Z,102481.89
2018-12-30T03:16:42.602Z,102466.28
2018-12-30T03:20:47.648Z,102482.88
2018-12-30T03:24:52.906Z,102495.23
2018-12-30T03:33:28.147Z,102455.05
2018-12-30T03:37:33.227Z,102465.28
2018-12-30T03:41:38.369Z,102450.84
2018-12-30T03:45:43.459Z,102464.09
2018-12-30T03:49:48.429Z,102501.37
2018-12-30T03:53:53.581Z,102476.82
2018-12-30T03:57:58.635Z,102474.25
2018-12-30T04:02:03.668Z,102485.20
2018-12-30T04:06:08.785Z,102489.53
2018-12-30T04:10:13.755Z,102497.98
2018-12-30T04:14:18.820Z,102501.98
2018-12-30T04:18:23.800Z,102503.19
2018-12-30T04:22:28.768Z,102505.54
2018-12-30T04:26:33.919Z,102503.71
2018-12-30T04:30:38.949Z,102509.91
2018-12-30T04:34:44.032Z,102497.56
2018-12-30T04:38:49.160Z,102508.58
2018-12-30T04:42:54.262Z,102514.26
2018-12-30T04:46:59.359Z,102521.66
2018-12-30T04:51:04.519Z,102516.31
2018-12-30T04:55:09.667Z,102524.16
2018-12-30T04:59:14.745Z,102516.67
2018-12-30T05:03:19.805Z,102527.70
2018-12-30T05:07:25.061Z,102532.93
2018-12-30T05:11:30.153Z,102532.88
2018-12-30T05:15:35.202Z,102527.12
2018-12-30T05:19:40.185Z,102533.17
2018-12-30T05:23:46.864Z,102543.60
2018-12-30T05:27:51.796Z,102538.50
2018-12-30T05:31:56.833Z,102536.77
2018-12-30T05:36:01.854Z,102546.84
2018-12-30T05:40:06.914Z,102553.00
2018-12-30T05:44:11.979Z,102551.34
2018-12-30T05:48:17.476Z,102547.98
2018-12-30T05:52:22.576Z,102554.43
2018-12-30T05:56:27.643Z,102561.50
2018-12-30T06:00:32.693Z,102559.83
2018-12-30T06:04:37.704Z,102549.25
2018-12-30T06:08:42.743Z,102555.47
2018-12-30T06:12:47.740Z,102562.88
2018-12-30T06:16:52.716Z,102546.20
2018-12-30T06:21:16.858Z,102572.37
2018-12-30T06:25:21.855Z,102572.37
2018-12-30T06:29:26.848Z,102581.02
2018-12-30T06:33:31.885Z,102597.28
2018-12-30T06:37:36.800Z,102602.91
2018-12-30T06:41:41.873Z,102612.48
2018-12-30T06:45:46.915Z,102614.23
2018-12-30T06:49:51.954Z,102626.00
2018-12-30T06:53:56.976Z,102629.00
2018-12-30T06:58:02.019Z,102632.50
2018-12-30T07:02:07.066Z,102651.80
2018-12-30T07:06:12.100Z,102651.80
2018-12-30T07:10:17.085Z,102650.47
2018-12-30T07:14:22.226Z,102659.30
2018-12-30T07:18:27.335Z,102659.30
2018-12-30T07:22:32.283Z,102670.16
2018-12-30T07:26:37.344Z,102661.37
2018-12-30T07:30:42.390Z,102666.70
2018-12-30T07:34:47.424Z,102670.68
2018-12-30T07:38:54.151Z,102666.30
2018-12-30T07:43:05.055Z,102646.17
2018-12-30T07:47:10.034Z,102627.59
2018-12-30T07:51:15.140Z,102614.55
2018-12-30T07:55:20.093Z,102615.47
2018-12-30T07:59:25.172Z,102600.66
2018-12-30T08:03:30.071Z,102615.61
2018-12-30T08:07:35.142Z,102626.99
2018-12-30T08:11:40.170Z,102624.85
2018-12-30T08:15:45.211Z,102638.06
2018-12-30T08:20:01.922Z,102647.63
2018-12-30T08:24:06.901Z,102644.48
2018-12-30T08:28:11.794Z,102654.11
2018-12-30T08:32:17.120Z,102662.39
2018-12-30T08:36:22.028Z,102680.30
2018-12-30T08:40:27.002Z,102661.86
2018-12-30T08:44:32.018Z,102672.17
2018-12-30T08:48:36.973Z,102670.87
2018-12-30T08:52:41.935Z,102676.56
2018-12-30T08:56:46.990Z,102678.60
2018-12-30T09:00:51.995Z,102679.62
2018-12-30T09:04:57.789Z,102683.58
2018-12-30T09:09:09.844Z,102692.78
2018-12-30T09:13:14.845Z,102694.04
2018-12-30T09:17:19.894Z,102698.89
2018-12-30T09:21:24.903Z,102698.52
2018-12-30T09:25:30.000Z,102706.90
2018-12-30T09:29:35.338Z,102688.86
2018-12-30T09:33:40.533Z,102681.08
2018-12-30T09:37:45.516Z,102672.41
2018-12-30T09:41:50.668Z,102677.14
2018-12-30T09:45:55.765Z,102683.63
2018-12-30T09:50:00.822Z,102683.16
2018-12-30T09:54:05.886Z,102707.32
2018-12-30T09:58:10.920Z,102706.03
2018-12-30T10:02:15.903Z,102708.25
2018-12-30T10:06:20.857Z,102701.71
2018-12-30T10:10:26.017Z,102722.64
2018-12-30T10:14:31.003Z,102733.02
2018-12-30T10:18:36.003Z,102740.91
2018-12-30T10:22:40.999Z,102760.45
2018-12-30T10:26:46.008Z,102754.89
2018-12-30T10:30:51.005Z,102755.03
2018-12-30T10:35:15.236Z,102752.75
2018-12-30T10:39:20.335Z,102748.33
2018-12-30T10:43:25.480Z,102756.64
2018-12-30T10:52:05.723Z,102755.63
2018-12-30T10:56:10.759Z,102743.19
2018-12-30T11:00:18.146Z,102741.28
2018-12-30T11:04:23.213Z,102729.44
2018-12-30T11:08:28.315Z,102724.63
2018-12-30T11:17:27.176Z,102708.02
2018-12-30T11:22:25.845Z,102700.83
2018-12-30T11:26:30.932Z,102692.40
2018-12-30T11:35:20.060Z,102694.05
2018-12-30T11:39:25.179Z,102694.02
2018-12-30T11:52:22.303Z,102681.14
2018-12-30T11:56:27.459Z,102684.21
2018-12-30T12:00:32.620Z,102686.72
2018-12-30T12:04:37.612Z,102683.72
2018-12-30T12:08:42.696Z,102684.62
2018-12-30T12:22:32.372Z,102658.89
2018-12-30T12:26:37.434Z,102642.16
2018-12-30T12:30:42.581Z,102644.23
2018-12-30T12:34:47.883Z,102664.78
2018-12-30T12:38:52.971Z,102659.55
2018-12-30T12:43:17.190Z,102663.86
2018-12-30T12:52:18.960Z,102653.35
2018-12-30T12:56:24.032Z,102639.42
2018-12-30T13:00:29.167Z,102638.90
2018-12-30T13:04:34.254Z,102647.08
2018-12-30T13:08:39.263Z,102650.63
2018-12-30T13:12:44.278Z,102659.80
2018-12-30T13:16:49.296Z,102638.30
2018-12-30T13:20:54.839Z,102640.89
2018-12-30T13:24:59.937Z,102635.05
2018-12-30T13:29:04.997Z,102624.84
2018-12-30T13:33:10.048Z,102639.75
2018-12-30T13:37:15.209Z,102639.08
2018-12-30T13:41:20.340Z,102636.89
2018-12-30T13:45:25.410Z,102634.91
2018-12-30T13:49:30.483Z,102624.89
2018-12-30T13:53:35.502Z,102631.94
2018-12-30T13:57:40.500Z,102636.64
2018-12-30T14:02:04.684Z,102613.94
2018-12-30T14:06:09.802Z,102613.94
2018-12-30T14:10:14.872Z,102624.03
2018-12-30T14:14:19.975Z,102620.08
2018-12-30T14:18:25.034Z,102625.67
2018-12-30T14:22:41.883Z,102645.44
2018-12-30T14:26:59.958Z,102645.44
2018-12-30T14:31:05.245Z,102659.84
2018-12-30T14:35:10.418Z,102648.91
2018-12-30T14:39:15.481Z,102636.24
2018-12-30T14:43:20.433Z,102632.27
2018-12-30T14:47:25.509Z,102627.52
2018-12-30T14:51:30.568Z,102615.62
2018-12-30T14:55:35.751Z,102617.85
2018-12-30T14:59:40.744Z,102617.85
2018-12-30T15:08:02.762Z,102608.84
2018-12-30T15:12:07.856Z,102608.84
2018-12-30T15:16:12.972Z,102618.04
2018-12-30T15:20:19.603Z,102631.22
2018-12-30T15:24:24.625Z,102639.08
2018-12-30T15:28:29.746Z,102645.27
2018-12-30T15:32:35.238Z,102639.34
2018-12-30T15:36:40.135Z,102639.16
2018-12-30T15:40:45.330Z,102632.83
2018-12-30T15:44:50.353Z,102632.52
2018-12-30T15:48:55.427Z,102623.80
2018-12-30T15:53:00.510Z,102618.72
2018-12-30T15:57:05.587Z,102616.95
2018-12-30T16:01:10.541Z,102610.47
2018-12-30T16:05:15.619Z,102604.84
2018-12-30T16:09:20.727Z,102600.03
2018-12-30T16:13:25.793Z,102594.28
2018-12-30T16:17:30.875Z,102581.61
2018-12-30T16:21:35.846Z,102584.67
2018-12-30T16:25:40.845Z,102585.49
2018-12-30T16:29:45.853Z,102580.62
2018-12-30T16:34:03.020Z,102572.27
2018-12-30T16:38:08.236Z,102579.69
2018-12-30T16:42:32.580Z,102592.81
2018-12-30T16:46:37.698Z,102592.81
2018-12-30T16:50:42.794Z,102595.45
2018-12-30T16:54:50.123Z,102596.28
2018-12-30T17:03:43.314Z,102594.91
2018-12-30T17:07:48.517Z,102588.39
2018-12-30T17:11:53.873Z,102583.19
2018-12-30T17:15:59.173Z,102591.95
2018-12-30T17:20:52.925Z,102590.13
2018-12-30T17:25:10.236Z,102590.61
2018-12-30T17:43:21.470Z,102561.20
2018-12-30T17:47:26.749Z,102565.22
2018-12-30T17:51:31.776Z,102563.44
2018-12-30T17:55:36.902Z,102560.34
2018-12-30T17:59:41.974Z,102564.28
2018-12-30T18:03:47.131Z,102567.72
2018-12-30T18:07:52.214Z,102560.69
2018-12-30T18:21:49.405Z,102569.83
2018-12-30T18:30:33.939Z,102558.37
2018-12-30T18:34:39.514Z,102573.23
2018-12-30T18:43:27.174Z,102578.80
2018-12-30T18:47:32.241Z,102585.34
2018-12-30T18:51:45.166Z,102577.41
2018-12-30T19:36:40.053Z,102564.03
2018-12-30T19:40:56.753Z,102549.66
2018-12-30T19:50:44.737Z,102544.64
2018-12-30T19:54:50.105Z,102562.08
2018-12-30T19:58:55.269Z,102551.16
2018-12-30T20:03:03.349Z,102549.78
2018-12-30T20:07:56.974Z,102559.88
2018-12-30T20:31:02.472Z,102558.06
2018-12-30T20:45:31.908Z,102537.88
2018-12-30T20:54:16.702Z,102533.43
2018-12-30T20:58:28.717Z,102531.64
2018-12-30T21:26:26.523Z,102537.67
2018-12-30T21:30:40.218Z,102537.59
2018-12-30T21:44:46.063Z,102532.72
2018-12-30T21:48:51.202Z,102539.26
2018-12-30T21:52:56.273Z,102539.70
2018-12-30T21:57:39.472Z,102542.36
2018-12-30T22:01:44.475Z,102542.36
2018-12-30T22:05:49.562Z,102539.26
2018-12-30T22:14:10.915Z,102550.97
2018-12-30T22:18:15.985Z,102548.75
2018-12-30T22:22:21.037Z,102555.36
2018-12-30T22:26:26.112Z,102555.36
2018-12-30T22:30:31.102Z,102567.94
2018-12-30T22:34:35.992Z,102570.23
2018-12-30T22:38:41.088Z,102567.52
2018-12-30T22:42:46.172Z,102568.32
2018-12-30T23:06:37.570Z,102568.32
